createdAt,value
2018-09-13T00:00:08.119Z,78.12
2018-09-13T00:02:38.052Z,78.25
2018-09-13T00:05:07.186Z,78.34
2018-09-13T00:07:36.217Z,77.79
2018-09-13T00:10:05.992Z,77.69
2018-09-13T00:12:34.797Z,78.32
2018-09-13T00:15:04.412Z,77.76
2018-09-13T00:17:33.235Z,77.90
2018-09-13T00:20:02.021Z,78.06
2018-09-13T00:22:30.848Z,77.79
2018-09-13T00:24:59.567Z,78.42
2018-09-13T00:27:28.451Z,77.88
2018-09-13T00:29:57.451Z,78.24
2018-09-13T00:32:26.798Z,78.16
2018-09-13T00:34:55.698Z,78.17
2018-09-13T00:37:25.295Z,78.42
2018-09-13T00:39:54.708Z,77.92
2018-09-13T00:42:24.127Z,77.62
2018-09-13T00:44:52.915Z,78.00
2018-09-13T00:47:22.076Z,78.08
2018-09-13T00:49:51.177Z,78.09
2018-09-13T00:52:20.704Z,78.32
2018-09-13T00:54:49.923Z,77.80
2018-09-13T00:57:19.402Z,77.55
2018-09-13T00:59:48.857Z,78.04
2018-09-13T01:02:18.231Z,77.33
2018-09-13T01:04:46.972Z,77.32
2018-09-13T01:07:15.836Z,77.92
2018-09-13T01:09:45.647Z,77.76
2018-09-13T01:12:15.387Z,77.69
2018-09-13T01:14:44.632Z,77.34
2018-09-13T01:17:13.412Z,77.51
2018-09-13T01:19:42.164Z,76.83
2018-09-13T01:22:11.024Z,77.56
2018-09-13T01:24:39.768Z,77.59
2018-09-13T01:27:08.856Z,77.25
2018-09-13T01:29:37.825Z,76.89
2018-09-13T01:32:07.864Z,76.97
2018-09-13T01:34:37.970Z,77.08
2018-09-13T01:37:07.643Z,77.19
2018-09-13T01:39:36.679Z,76.58
2018-09-13T01:42:07.640Z,76.73
2018-09-13T01:44:37.854Z,76.84
2018-09-13T01:47:08.124Z,76.62
2018-09-13T01:49:37.051Z,77.14
2018-09-13T01:52:06.479Z,76.80
2018-09-13T01:54:35.952Z,77.33
2018-09-13T01:57:05.569Z,77.03
2018-09-13T01:59:34.899Z,77.48
2018-09-13T02:02:06.040Z,77.37
2018-09-13T02:04:35.260Z,76.99
2018-09-13T02:07:04.101Z,77.27
2018-09-13T02:09:33.548Z,76.87
2018-09-13T02:12:02.340Z,77.38
2018-09-13T02:14:31.824Z,77.54
2018-09-13T02:17:00.591Z,77.52
2018-09-13T02:19:29.818Z,77.07
2018-09-13T02:21:58.591Z,77.35
2018-09-13T02:24:27.400Z,77.34
2018-09-13T02:26:56.250Z,78.12
2018-09-13T02:29:25.550Z,77.98
2018-09-13T02:31:55.211Z,77.96
2018-09-13T02:34:24.668Z,77.94
2018-09-13T02:36:54.350Z,77.64
2018-09-13T02:39:23.127Z,77.74
2018-09-13T02:41:53.132Z,77.97
2018-09-13T02:44:22.003Z,78.17
2018-09-13T02:46:50.768Z,77.73
2018-09-13T02:49:19.697Z,77.79
2018-09-13T02:51:49.394Z,77.75
2018-09-13T02:54:18.139Z,78.13
2018-09-13T02:56:47.694Z,78.11
2018-09-13T02:59:17.172Z,78.24
2018-09-13T03:01:46.675Z,78.10
2018-09-13T03:04:15.447Z,78.01
2018-09-13T03:06:44.199Z,77.84
2018-09-13T03:09:14.080Z,78.60
2018-09-13T03:11:44.070Z,78.44
2018-09-13T03:14:13.643Z,78.67
2018-09-13T03:16:42.627Z,78.62
2018-09-13T03:19:11.485Z,78.90
2018-09-13T03:21:40.467Z,78.87
2018-09-13T03:24:09.234Z,78.91
2018-09-13T03:26:38.279Z,79.07
2018-09-13T03:29:08.006Z,79.07
2018-09-13T03:31:38.844Z,78.90
2018-09-13T03:34:08.456Z,78.44
2018-09-13T03:36:37.825Z,79.11
2018-09-13T03:39:10.026Z,78.75
2018-09-13T03:41:39.599Z,79.70
2018-09-13T03:44:08.466Z,79.43
2018-09-13T03:46:38.003Z,79.03
2018-09-13T03:49:07.003Z,79.56
2018-09-13T03:51:36.719Z,79.36
2018-09-13T03:54:06.240Z,79.99
2018-09-13T03:56:35.970Z,80.12
2018-09-13T03:59:05.882Z,79.61
2018-09-13T04:01:35.751Z,79.62
2018-09-13T04:04:04.827Z,79.99
2018-09-13T04:06:34.098Z,79.73
2018-09-13T04:09:04.383Z,79.96
2018-09-13T04:11:33.180Z,79.87
2018-09-13T04:14:02.765Z,80.39
2018-09-13T04:16:31.778Z,79.54
2018-09-13T04:19:00.586Z,80.20
2018-09-13T04:21:29.745Z,80.06
2018-09-13T04:23:58.673Z,79.60
2018-09-13T04:26:28.593Z,80.05
2018-09-13T04:28:57.325Z,79.93
2018-09-13T04:31:26.849Z,79.93
2018-09-13T04:33:56.165Z,80.68
2018-09-13T04:36:24.923Z,79.05
2018-09-13T04:38:54.604Z,79.80
2018-09-13T04:41:23.887Z,79.05
2018-09-13T04:43:52.829Z,78.93
2018-09-13T04:46:21.591Z,79.10
2018-09-13T04:48:50.358Z,79.39
2018-09-13T04:51:19.683Z,79.20
2018-09-13T04:53:49.110Z,78.64
2018-09-13T04:56:19.128Z,78.05
2018-09-13T04:58:48.556Z,77.95
2018-09-13T05:01:17.916Z,78.01
2018-09-13T05:03:46.677Z,77.63
2018-09-13T05:06:15.457Z,77.33
2018-09-13T05:08:44.255Z,76.92
2018-09-13T05:11:13.260Z,76.98
2018-09-13T05:13:42.951Z,76.77
2018-09-13T05:16:11.750Z,76.55
2018-09-13T05:18:40.515Z,76.30
2018-09-13T05:21:09.316Z,75.74
2018-09-13T05:23:38.931Z,75.78
2018-09-13T05:26:09.106Z,75.30
2018-09-13T05:28:38.707Z,75.29
2018-09-13T05:31:08.964Z,75.09
2018-09-13T05:33:38.675Z,75.40
2018-09-13T05:36:07.947Z,75.71
2018-09-13T05:38:38.067Z,75.06
2018-09-13T05:41:07.220Z,75.48
2018-09-13T05:43:37.206Z,75.10
2018-09-13T05:46:06.092Z,75.21
2018-09-13T05:48:35.242Z,74.72
2018-09-13T05:51:04.104Z,75.39
2018-09-13T05:53:33.787Z,74.72
2018-09-13T05:56:03.695Z,75.26
2018-09-13T05:58:33.129Z,74.96
2018-09-13T06:01:02.755Z,74.27
2018-09-13T06:03:32.590Z,74.25
2018-09-13T06:06:01.897Z,73.45
2018-09-13T06:08:31.387Z,74.01
2018-09-13T06:11:00.195Z,73.54
2018-09-13T06:13:29.568Z,72.96
2018-09-13T06:15:58.316Z,73.40
2018-09-13T06:18:27.098Z,72.94
2018-09-13T06:20:55.932Z,72.49
2018-09-13T06:23:26.041Z,72.23
2018-09-13T06:25:54.823Z,72.20
2018-09-13T06:28:23.819Z,71.56
2018-09-13T06:30:52.807Z,71.68
2018-09-13T06:33:22.659Z,72.39
2018-09-13T06:35:51.401Z,70.89
2018-09-13T06:38:21.298Z,70.63
2018-09-13T06:40:50.036Z,70.50
2018-09-13T06:43:19.610Z,70.47
2018-09-13T06:45:48.367Z,70.29
2018-09-13T06:48:17.243Z,69.98
2018-09-13T06:50:46.039Z,70.65
2018-09-13T06:53:15.972Z,70.32
2018-09-13T06:55:45.244Z,69.43
2018-09-13T06:58:14.624Z,69.30
2018-09-13T07:00:44.060Z,69.74
2018-09-13T07:03:13.439Z,69.96
2018-09-13T07:05:42.187Z,68.77
2018-09-13T07:08:10.924Z,68.69
2018-09-13T07:10:39.816Z,68.76
2018-09-13T07:13:09.317Z,68.50
2018-09-13T07:15:38.131Z,68.59
2018-09-13T07:18:08.195Z,68.30
2018-09-13T07:20:38.519Z,67.59
2018-09-13T07:23:07.827Z,68.16
2018-09-13T07:25:37.416Z,68.47
2018-09-13T07:28:06.800Z,67.74
2018-09-13T07:30:35.829Z,67.01
2018-09-13T07:33:05.613Z,67.51
2018-09-13T07:35:34.657Z,66.12
2018-09-13T07:38:05.084Z,65.79
2018-09-13T07:40:33.847Z,65.92
2018-09-13T07:43:03.364Z,64.58
2018-09-13T07:45:32.098Z,64.12
2018-09-13T07:48:00.816Z,65.19
2018-09-13T07:50:29.752Z,64.26
2018-09-13T07:52:59.192Z,64.18
2018-09-13T07:55:28.655Z,64.07
2018-09-13T07:57:58.624Z,64.23
2018-09-13T08:00:27.964Z,63.71
2018-09-13T08:02:57.459Z,63.56
2018-09-13T08:05:26.231Z,62.83
2018-09-13T08:07:55.004Z,63.12
2018-09-13T08:10:23.821Z,61.64
2018-09-13T08:12:53.575Z,61.39
2018-09-13T08:15:22.514Z,61.13
2018-09-13T08:17:51.726Z,62.46
2018-09-13T08:20:20.507Z,61.69
2018-09-13T08:22:49.286Z,60.22
2018-09-13T08:25:18.140Z,61.51
2018-09-13T08:27:46.883Z,59.93
2018-09-13T08:30:16.257Z,61.86
2018-09-13T08:32:45.723Z,60.67
2018-09-13T08:35:14.558Z,59.62
2018-09-13T08:37:43.846Z,59.54
2018-09-13T08:40:12.650Z,60.48
2018-09-13T08:42:42.190Z,60.34
2018-09-13T08:45:10.974Z,58.76
2018-09-13T08:47:39.787Z,58.08
2018-09-13T08:50:09.247Z,59.28
2018-09-13T08:52:38.972Z,59.79
2018-09-13T08:55:10.468Z,59.01
2018-09-13T08:57:40.422Z,59.00
2018-09-13T09:00:12.004Z,56.56
2018-09-13T09:02:42.022Z,57.41
2018-09-13T09:05:10.787Z,57.08
2018-09-13T09:07:40.115Z,57.78
2018-09-13T09:10:09.060Z,56.00
2018-09-13T09:12:38.472Z,56.80
2018-09-13T09:15:08.835Z,56.85
2018-09-13T09:17:38.615Z,56.19
2018-09-13T09:20:08.689Z,56.37
2018-09-13T09:22:38.323Z,56.78
2018-09-13T09:25:07.851Z,56.26
2018-09-13T09:27:37.430Z,55.54
2018-09-13T09:30:07.443Z,56.66
2018-09-13T09:32:37.277Z,56.15
2018-09-13T09:35:06.668Z,57.03
2018-09-13T09:37:36.347Z,55.85
2018-09-13T09:40:05.406Z,55.21
2018-09-13T09:42:34.820Z,53.80
2018-09-13T09:45:03.595Z,53.14
2018-09-13T09:47:32.419Z,52.42
2018-09-13T09:50:01.280Z,51.22
2018-09-13T09:52:31.048Z,52.10
2018-09-13T09:55:00.428Z,52.39
2018-09-13T09:57:29.924Z,51.35
2018-09-13T09:59:59.472Z,51.55
2018-09-13T10:02:28.954Z,51.53
2018-09-13T10:04:57.708Z,52.42
2018-09-13T10:07:26.609Z,51.34
2018-09-13T10:09:55.527Z,51.24
2018-09-13T10:12:24.905Z,52.19
2018-09-13T10:14:59.924Z,52.54
2018-09-13T10:17:34.077Z,52.36
2018-09-13T10:20:07.987Z,51.64
2018-09-13T10:22:41.915Z,51.44
2018-09-13T10:26:16.187Z,50.27
2018-09-13T10:28:50.105Z,49.60
2018-09-13T10:31:25.272Z,49.50
2018-09-13T10:34:00.012Z,48.26
2018-09-13T10:36:33.996Z,48.47
2018-09-13T10:39:08.417Z,48.56
2018-09-13T10:41:44.790Z,48.76
2018-09-13T10:44:18.749Z,48.24
2018-09-13T10:46:51.707Z,48.06
2018-09-13T10:49:25.518Z,46.97
2018-09-13T10:52:01.014Z,47.97
2018-09-13T10:54:34.197Z,47.73
2018-09-13T10:57:09.621Z,48.04
2018-09-13T10:59:39.448Z,47.04
2018-09-13T11:02:08.836Z,48.07
2018-09-13T11:04:38.303Z,47.49
2018-09-13T11:07:08.900Z,46.38
2018-09-13T11:09:39.451Z,47.08
2018-09-13T11:12:09.311Z,47.00
2018-09-13T11:14:47.079Z,45.91
2018-09-13T11:17:15.904Z,46.09
2018-09-13T11:19:44.745Z,46.14
2018-09-13T11:22:13.539Z,46.19
2018-09-13T11:24:42.438Z,46.03
2018-09-13T11:27:11.301Z,46.45
2018-09-13T11:29:40.180Z,46.59
2018-09-13T11:32:09.853Z,45.98
2018-09-13T11:34:38.972Z,46.01
2018-09-13T11:37:09.296Z,45.33
2018-09-13T11:39:39.184Z,44.92
2018-09-13T11:42:09.637Z,45.02
2018-09-13T11:44:38.912Z,45.15
2018-09-13T11:47:09.036Z,45.71
2018-09-13T11:49:38.774Z,44.87
2018-09-13T11:52:08.629Z,44.58
2018-09-13T11:54:38.467Z,44.04
2018-09-13T11:57:08.852Z,43.47
2018-09-13T11:59:38.587Z,43.54
2018-09-13T12:02:08.808Z,42.81
2018-09-13T12:04:38.049Z,43.32
2018-09-13T12:07:07.256Z,43.58
2018-09-13T12:09:37.712Z,44.56
2018-09-13T12:12:07.447Z,42.91
2018-09-13T12:14:37.708Z,42.91
2018-09-13T12:17:07.004Z,43.13
2018-09-13T12:19:36.413Z,43.14
2018-09-13T12:22:05.729Z,43.92
2018-09-13T12:24:34.793Z,45.21
2018-09-13T12:27:03.752Z,45.37
2018-09-13T12:29:32.612Z,45.39
2018-09-13T12:32:02.205Z,46.23
2018-09-13T12:34:31.035Z,47.00
2018-09-13T12:37:01.088Z,46.22
2018-09-13T12:39:29.924Z,46.01
2018-09-13T12:41:59.581Z,45.72
2018-09-13T12:44:28.366Z,45.19
2018-09-13T12:46:57.179Z,46.12
2018-09-13T12:49:26.047Z,46.78
2018-09-13T12:51:55.783Z,47.51
2018-09-13T12:54:24.647Z,45.21
2018-09-13T12:56:54.087Z,44.15
2018-09-13T12:59:24.141Z,43.71
2018-09-13T13:01:53.702Z,43.98
2018-09-13T13:04:22.489Z,43.66
2018-09-13T13:06:51.939Z,43.53
2018-09-13T13:09:20.676Z,44.14
2018-09-13T13:11:49.422Z,43.62
2018-09-13T13:14:18.808Z,43.48
2018-09-13T13:16:47.701Z,43.52
2018-09-13T13:19:16.544Z,43.17
2018-09-13T13:21:45.367Z,44.52
2018-09-13T13:24:14.127Z,43.59
2018-09-13T13:26:42.993Z,43.61
2018-09-13T13:29:11.764Z,44.44
2018-09-13T13:31:41.484Z,43.17
2018-09-13T13:34:10.962Z,43.54
2018-09-13T13:36:39.774Z,44.06
2018-09-13T13:39:11.226Z,43.88
2018-09-13T13:41:40.855Z,43.92
2018-09-13T13:44:09.597Z,44.09
2018-09-13T13:46:38.564Z,42.35
2018-09-13T13:49:08.109Z,43.04
2018-09-13T13:51:38.463Z,43.25
2018-09-13T13:54:08.346Z,42.68
2018-09-13T13:56:38.344Z,41.87
2018-09-13T13:59:08.693Z,42.27
2018-09-13T14:01:39.346Z,42.96
2018-09-13T14:04:09.337Z,42.14
2018-09-13T14:06:38.450Z,42.65
2018-09-13T14:09:10.351Z,42.58
2018-09-13T14:11:39.116Z,43.58
2018-09-13T14:14:09.079Z,43.35
2018-09-13T14:16:38.939Z,43.10
2018-09-13T14:19:08.015Z,44.03
2018-09-13T14:21:37.408Z,43.74
2018-09-13T14:24:07.251Z,44.23
2018-09-13T14:26:36.343Z,44.69
2018-09-13T14:29:05.576Z,45.79
2018-09-13T14:31:35.448Z,45.46
2018-09-13T14:34:05.125Z,46.07
2018-09-13T14:36:33.887Z,45.88
2018-09-13T14:39:03.088Z,45.92
2018-09-13T14:41:32.311Z,45.71
2018-09-13T14:44:01.124Z,45.87
2018-09-13T14:46:29.961Z,45.60
2018-09-13T14:48:58.752Z,45.43
2018-09-13T14:51:27.531Z,45.12
2018-09-13T14:53:56.442Z,45.33
2018-09-13T14:56:26.475Z,44.82
2018-09-13T14:58:56.051Z,44.26
2018-09-13T15:01:25.523Z,44.73
2018-09-13T15:03:54.319Z,44.93
2018-09-13T15:06:23.083Z,44.34
2018-09-13T15:08:51.903Z,44.54
2018-09-13T15:11:20.763Z,44.49
2018-09-13T15:13:50.167Z,45.24
2018-09-13T15:16:18.957Z,45.37
2018-09-13T15:18:47.772Z,45.40
2018-09-13T15:21:16.584Z,45.53
2018-09-13T15:23:45.651Z,44.55
2018-09-13T15:26:14.542Z,45.90
2018-09-13T15:28:43.796Z,46.35
2018-09-13T15:31:13.259Z,46.64
2018-09-13T15:33:43.387Z,45.99
2018-09-13T15:36:12.175Z,46.88
2018-09-13T15:38:42.135Z,47.17
2018-09-13T15:41:11.754Z,47.07
2018-09-13T15:43:40.584Z,48.17
2018-09-13T15:46:09.410Z,48.72
2018-09-13T15:48:38.657Z,49.02
2018-09-13T15:51:08.022Z,49.54
2018-09-13T15:53:38.055Z,49.88
2018-09-13T15:56:38.747Z,50.41
2018-09-13T15:59:08.640Z,50.10
2018-09-13T16:01:38.514Z,49.90
2018-09-13T16:04:08.108Z,50.72
2018-09-13T16:06:37.268Z,50.91
2018-09-13T16:09:09.340Z,51.00
2018-09-13T16:11:38.578Z,50.84
2018-09-13T16:14:08.784Z,51.67
2018-09-13T16:16:38.630Z,51.76
2018-09-13T16:19:08.068Z,51.83
2018-09-13T16:21:37.364Z,52.09
2018-09-13T16:24:07.029Z,52.73
2018-09-13T16:26:36.580Z,53.18
2018-09-13T16:29:05.846Z,53.66
2018-09-13T16:31:36.057Z,52.72
2018-09-13T16:34:06.112Z,53.16
2018-09-13T16:36:36.313Z,51.48
2018-09-13T16:39:27.066Z,51.61
2018-09-13T16:42:01.614Z,51.08
2018-09-13T16:44:35.842Z,49.88
2018-09-13T16:47:09.854Z,50.40
2018-09-13T16:49:40.250Z,50.02
2018-09-13T16:52:09.928Z,50.44
2018-09-13T16:54:39.230Z,51.13
2018-09-13T16:57:08.961Z,51.42
2018-09-13T16:59:39.825Z,52.27
2018-09-13T17:02:09.276Z,53.21
2018-09-13T17:04:39.562Z,53.19
2018-09-13T17:07:09.884Z,53.33
2018-09-13T17:09:38.818Z,54.07
2018-09-13T17:12:08.815Z,54.25
2018-09-13T17:14:38.859Z,54.32
2018-09-13T17:17:07.972Z,54.97
2018-09-13T17:19:37.664Z,55.74
2018-09-13T17:22:07.567Z,56.20
2018-09-13T17:24:37.766Z,55.67
2018-09-13T17:27:07.020Z,56.66
2018-09-13T17:29:36.427Z,57.14
2018-09-13T17:32:07.187Z,57.56
2018-09-13T17:34:36.845Z,57.95
2018-09-13T17:37:08.054Z,57.91
2018-09-13T17:39:37.670Z,58.68
2018-09-13T17:42:07.915Z,58.12
2018-09-13T17:44:38.136Z,59.28
2018-09-13T17:47:07.339Z,60.39
2018-09-13T17:49:36.613Z,60.20
2018-09-13T17:52:06.044Z,60.35
2018-09-13T17:54:37.190Z,60.89
2018-09-13T17:57:07.817Z,61.89
2018-09-13T17:59:38.337Z,61.71
2018-09-13T18:02:08.750Z,61.78
2018-09-13T18:04:38.371Z,62.00
2018-09-13T18:07:38.100Z,62.67
2018-09-13T18:10:07.472Z,63.11
2018-09-13T18:12:39.430Z,62.88
2018-09-13T18:15:08.926Z,62.95
2018-09-13T18:17:39.344Z,62.42
2018-09-13T18:20:08.270Z,63.05
2018-09-13T18:22:38.231Z,62.66
2018-09-13T18:25:07.759Z,62.74
2018-09-13T18:27:37.375Z,62.39
2018-09-13T18:30:06.827Z,62.59
2018-09-13T18:32:37.394Z,62.57
2018-09-13T18:35:07.262Z,62.47
2018-09-13T18:37:37.177Z,63.13
2018-09-13T18:40:06.364Z,62.83
2018-09-13T18:42:35.941Z,63.29
2018-09-13T18:45:05.707Z,63.90
2018-09-13T18:47:34.774Z,63.86
2018-09-13T18:50:03.735Z,63.01
2018-09-13T18:52:33.157Z,63.88
2018-09-13T18:55:02.783Z,63.03
2018-09-13T18:57:32.277Z,63.75
2018-09-13T19:00:01.093Z,63.97
2018-09-13T19:02:30.747Z,63.70
2018-09-13T19:04:59.585Z,63.61
2018-09-13T19:07:28.431Z,63.07
2018-09-13T19:09:57.330Z,63.48
2018-09-13T19:12:26.714Z,63.33
2018-09-13T19:14:56.327Z,63.77
2018-09-13T19:17:25.253Z,63.98
2018-09-13T19:19:54.677Z,64.22
2018-09-13T19:22:23.500Z,64.27
2018-09-13T19:24:52.303Z,64.74
2018-09-13T19:27:21.256Z,64.53
2018-09-13T19:29:50.034Z,64.82
2018-09-13T19:32:19.892Z,64.92
2018-09-13T19:34:48.879Z,64.92
2018-09-13T19:37:18.310Z,64.70
2018-09-13T19:39:47.128Z,64.71
2018-09-13T19:42:18.536Z,64.58
2018-09-13T19:44:47.573Z,65.15
2018-09-13T19:47:16.428Z,64.91
2018-09-13T19:49:46.349Z,64.90
2018-09-13T19:52:15.132Z,65.10
2018-09-13T19:54:44.845Z,65.05
2018-09-13T19:57:14.486Z,65.26
2018-09-13T19:59:44.364Z,65.05
2018-09-13T20:02:13.715Z,65.23
2018-09-13T20:04:42.765Z,64.93
2018-09-13T20:07:11.597Z,65.09
2018-09-13T20:09:40.425Z,65.41
2018-09-13T20:12:10.076Z,65.42
2018-09-13T20:14:39.765Z,65.36
2018-09-13T20:17:08.596Z,65.50
2018-09-13T20:19:37.730Z,65.62
2018-09-13T20:22:09.254Z,65.48
2018-09-13T20:24:38.406Z,65.82
2018-09-13T20:27:07.896Z,65.88
2018-09-13T20:29:37.028Z,65.52
2018-09-13T20:32:07.214Z,65.91
2018-09-13T20:34:37.119Z,65.77
2018-09-13T20:37:07.886Z,66.04
2018-09-13T20:39:37.392Z,66.11
2018-09-13T20:42:07.674Z,66.54
2018-09-13T20:44:37.394Z,66.87
2018-09-13T20:47:07.923Z,66.51
2018-09-13T20:49:37.982Z,67.36
2018-09-13T20:52:07.647Z,66.82
2018-09-13T20:54:37.508Z,67.49
2018-09-13T20:57:07.601Z,67.27
2018-09-13T20:59:37.435Z,67.52
2018-09-13T21:02:07.512Z,68.33
2018-09-13T21:04:37.878Z,68.96
2018-09-13T21:07:07.654Z,68.83
2018-09-13T21:09:37.503Z,69.34
2018-09-13T21:12:08.116Z,69.38
2018-09-13T21:14:38.488Z,69.20
2018-09-13T21:17:07.996Z,69.33
2018-09-13T21:19:38.089Z,69.59
2018-09-13T21:22:08.692Z,69.46
2018-09-13T21:24:38.587Z,69.25
2018-09-13T21:27:08.266Z,69.21
2018-09-13T21:29:37.776Z,69.61
2018-09-13T21:32:08.074Z,69.73
2018-09-13T21:34:37.435Z,69.71
2018-09-13T21:37:07.902Z,70.09
2018-09-13T21:39:37.974Z,69.61
2018-09-13T21:42:08.052Z,69.63
2018-09-13T21:44:38.529Z,69.64
2018-09-13T21:47:07.887Z,70.06
2018-09-13T21:49:37.604Z,70.42
2018-09-13T21:52:07.119Z,69.66
2018-09-13T21:54:37.229Z,69.83
2018-09-13T21:57:07.653Z,70.82
2018-09-13T21:59:37.904Z,70.91
2018-09-13T22:02:08.094Z,70.64
2018-09-13T22:04:38.516Z,70.53
2018-09-13T22:07:08.313Z,70.56
2018-09-13T22:09:38.526Z,71.17
2018-09-13T22:12:08.150Z,71.18
2018-09-13T22:14:38.258Z,71.07
2018-09-13T22:17:07.742Z,71.78
2018-09-13T22:19:37.535Z,71.78
2018-09-13T22:22:07.486Z,71.29
2018-09-13T22:24:39.031Z,71.91
2018-09-13T22:27:08.507Z,72.04
2018-09-13T22:29:38.055Z,71.90
2018-09-13T22:32:08.550Z,72.12
2018-09-13T22:34:38.073Z,72.43
2018-09-13T22:37:08.538Z,72.57
2018-09-13T22:39:39.124Z,73.66
2018-09-13T22:42:09.376Z,73.45
2018-09-13T22:44:39.851Z,73.72
2018-09-13T22:47:09.449Z,73.70
2018-09-13T22:49:38.734Z,73.99
2018-09-13T22:52:08.612Z,74.07
2018-09-13T22:54:39.150Z,74.12
2018-09-13T22:57:09.394Z,74.03
2018-09-13T22:59:39.283Z,74.92
2018-09-13T23:02:09.833Z,74.85
2018-09-13T23:04:39.549Z,74.58
2018-09-13T23:07:09.051Z,75.06
2018-09-13T23:09:38.258Z,75.18
2018-09-13T23:12:08.275Z,75.58
2018-09-13T23:14:38.795Z,75.71
2018-09-13T23:17:07.964Z,75.29
2018-09-13T23:19:37.159Z,76.02
2018-09-13T23:22:07.443Z,76.56
2018-09-13T23:24:36.849Z,75.74
2018-09-13T23:27:06.816Z,75.83
2018-09-13T23:29:35.878Z,76.42
2018-09-13T23:32:06.489Z,75.97
2018-09-13T23:34:36.111Z,75.65
2018-09-13T23:37:06.235Z,76.64
2018-09-13T23:39:37.150Z,75.95
2018-09-13T23:42:06.605Z,76.60
2018-09-13T23:44:35.884Z,76.60
2018-09-13T23:47:04.780Z,76.79
2018-09-13T23:49:33.638Z,76.81
2018-09-13T23:52:02.427Z,77.48
2018-09-13T23:54:31.443Z,76.61
2018-09-13T23:57:00.817Z,77.13
2018-09-13T23:59:30.243Z,76.95
